sensor_id;sensor_type;location;lat;lon;timestamp;temperature;humidity
7792;DHT22;3940;49.892;10.886;2022-07-29T00:02:00;22.60;86.90
7792;DHT22;3940;49.892;10.886;2022-07-29T00:04:46;22.60;83.10
7792;DHT22;3940;49.892;10.886;2022-07-29T00:07:32;22.50;82.80
7792;DHT22;3940;49.892;10.886;2022-07-29T00:10:18;22.50;84.20
7792;DHT22;3940;49.892;10.886;2022-07-29T00:13:03;22.50;83.30
7792;DHT22;3940;49.892;10.886;2022-07-29T00:15:48;22.50;81.40
7792;DHT22;3940;49.892;10.886;2022-07-29T00:18:32;22.40;82.50
7792;DHT22;3940;49.892;10.886;2022-07-29T00:21:17;22.50;82.60
7792;DHT22;3940;49.892;10.886;2022-07-29T00:24:01;22.40;83.50
7792;DHT22;3940;49.892;10.886;2022-07-29T00:26:47;22.40;84.30
7792;DHT22;3940;49.892;10.886;2022-07-29T00:29:31;22.40;85.30
7792;DHT22;3940;49.892;10.886;2022-07-29T00:32:18;22.40;84.40
7792;DHT22;3940;49.892;10.886;2022-07-29T00:35:03;22.40;85.10
7792;DHT22;3940;49.892;10.886;2022-07-29T00:38:12;22.40;86.20
7792;DHT22;3940;49.892;10.886;2022-07-29T00:41:20;22.30;83.30
7792;DHT22;3940;49.892;10.886;2022-07-29T00:44:06;22.30;85.30
7792;DHT22;3940;49.892;10.886;2022-07-29T00:46:55;22.30;88.50
7792;DHT22;3940;49.892;10.886;2022-07-29T00:49:43;22.30;88.20
7792;DHT22;3940;49.892;10.886;2022-07-29T00:52:34;22.30;89.10
7792;DHT22;3940;49.892;10.886;2022-07-29T00:55:21;22.30;87.70
7792;DHT22;3940;49.892;10.886;2022-07-29T00:58:29;22.20;85.10
7792;DHT22;3940;49.892;10.886;2022-07-29T01:01:14;22.10;87.20
7792;DHT22;3940;49.892;10.886;2022-07-29T01:04:06;22.20;87.80
7792;DHT22;3940;49.892;10.886;2022-07-29T01:06:56;22.10;87.50
7792;DHT22;3940;49.892;10.886;2022-07-29T01:10:04;22.10;87.40
7792;DHT22;3940;49.892;10.886;2022-07-29T01:12:53;22.00;86.60
7792;DHT22;3940;49.892;10.886;2022-07-29T01:15:51;22.00;88.20
7792;DHT22;3940;49.892;10.886;2022-07-29T01:18:42;22.00;87.90
7792;DHT22;3940;49.892;10.886;2022-07-29T01:21:53;22.00;89.60
7792;DHT22;3940;49.892;10.886;2022-07-29T01:24:58;21.90;89.50
7792;DHT22;3940;49.892;10.886;2022-07-29T01:31:13;21.80;88.60
7792;DHT22;3940;49.892;10.886;2022-07-29T01:34:05;21.80;88.30
7792;DHT22;3940;49.892;10.886;2022-07-29T01:37:08;21.80;87.90
7792;DHT22;3940;49.892;10.886;2022-07-29T01:40:27;21.80;88.50
7792;DHT22;3940;49.892;10.886;2022-07-29T01:43:16;21.70;87.00
7792;DHT22;3940;49.892;10.886;2022-07-29T01:46:09;21.80;87.60
7792;DHT22;3940;49.892;10.886;2022-07-29T01:49:03;21.70;86.40
7792;DHT22;3940;49.892;10.886;2022-07-29T01:52:11;21.70;86.60
7792;DHT22;3940;49.892;10.886;2022-07-29T01:55:19;21.70;86.20
7792;DHT22;3940;49.892;10.886;2022-07-29T01:58:07;21.70;87.70
7792;DHT22;3940;49.892;10.886;2022-07-29T02:00:54;21.80;89.90
7792;DHT22;3940;49.892;10.886;2022-07-29T02:03:43;21.70;89.20
7792;DHT22;3940;49.892;10.886;2022-07-29T02:06:36;21.80;89.10
7792;DHT22;3940;49.892;10.886;2022-07-29T02:09:27;21.70;89.10
7792;DHT22;3940;49.892;10.886;2022-07-29T02:12:15;21.60;89.10
7792;DHT22;3940;49.892;10.886;2022-07-29T02:15:07;21.60;90.00
7792;DHT22;3940;49.892;10.886;2022-07-29T02:18:18;21.60;89.80
7792;DHT22;3940;49.892;10.886;2022-07-29T02:21:07;21.50;91.10
7792;DHT22;3940;49.892;10.886;2022-07-29T02:23:56;21.50;90.60
7792;DHT22;3940;49.892;10.886;2022-07-29T02:26:44;21.50;91.80
7792;DHT22;3940;49.892;10.886;2022-07-29T02:29:54;21.50;90.90
7792;DHT22;3940;49.892;10.886;2022-07-29T02:32:43;21.40;90.80
7792;DHT22;3940;49.892;10.886;2022-07-29T02:35:29;21.40;90.90
7792;DHT22;3940;49.892;10.886;2022-07-29T02:38:16;21.40;91.20
7792;DHT22;3940;49.892;10.886;2022-07-29T02:41:20;21.40;90.60
7792;DHT22;3940;49.892;10.886;2022-07-29T02:44:16;21.40;90.10
7792;DHT22;3940;49.892;10.886;2022-07-29T02:47:30;21.30;89.20
7792;DHT22;3940;49.892;10.886;2022-07-29T02:50:23;21.40;89.60
7792;DHT22;3940;49.892;10.886;2022-07-29T02:53:25;21.40;90.50
7792;DHT22;3940;49.892;10.886;2022-07-29T02:56:16;21.40;90.80
7792;DHT22;3940;49.892;10.886;2022-07-29T02:59:10;21.40;91.00
7792;DHT22;3940;49.892;10.886;2022-07-29T03:02:17;21.30;89.80
7792;DHT22;3940;49.892;10.886;2022-07-29T03:05:04;21.20;91.30
7792;DHT22;3940;49.892;10.886;2022-07-29T03:07:57;21.30;92.20
7792;DHT22;3940;49.892;10.886;2022-07-29T03:10:46;21.30;91.80
7792;DHT22;3940;49.892;10.886;2022-07-29T03:13:33;21.30;92.10
7792;DHT22;3940;49.892;10.886;2022-07-29T03:16:19;21.20;92.40
7792;DHT22;3940;49.892;10.886;2022-07-29T03:19:06;21.20;92.30
7792;DHT22;3940;49.892;10.886;2022-07-29T03:21:57;21.20;92.60
7792;DHT22;3940;49.892;10.886;2022-07-29T03:24:47;21.10;93.60
7792;DHT22;3940;49.892;10.886;2022-07-29T03:27:36;21.10;92.90
7792;DHT22;3940;49.892;10.886;2022-07-29T03:30:23;21.10;94.40
7792;DHT22;3940;49.892;10.886;2022-07-29T03:33:07;21.10;94.70
7792;DHT22;3940;49.892;10.886;2022-07-29T03:35:52;21.00;95.90
7792;DHT22;3940;49.892;10.886;2022-07-29T03:38:43;21.00;95.70
7792;DHT22;3940;49.892;10.886;2022-07-29T03:41:30;20.90;95.30
7792;DHT22;3940;49.892;10.886;2022-07-29T03:44:38;20.80;95.40
7792;DHT22;3940;49.892;10.886;2022-07-29T03:47:27;20.70;94.50
7792;DHT22;3940;49.892;10.886;2022-07-29T03:50:14;20.70;94.10
7792;DHT22;3940;49.892;10.886;2022-07-29T03:53:01;20.70;94.10
7792;DHT22;3940;49.892;10.886;2022-07-29T03:56:07;20.70;93.70
7792;DHT22;3940;49.892;10.886;2022-07-29T03:58:56;20.70;96.30
7792;DHT22;3940;49.892;10.886;2022-07-29T04:01:42;20.60;97.00
7792;DHT22;3940;49.892;10.886;2022-07-29T04:04:27;20.50;96.40
7792;DHT22;3940;49.892;10.886;2022-07-29T04:07:14;20.50;97.60
7792;DHT22;3940;49.892;10.886;2022-07-29T04:10:01;20.50;99.20
7792;DHT22;3940;49.892;10.886;2022-07-29T04:12:48;20.50;96.10
7792;DHT22;3940;49.892;10.886;2022-07-29T04:15:32;20.50;97.20
7792;DHT22;3940;49.892;10.886;2022-07-29T04:18:24;20.60;97.50
7792;DHT22;3940;49.892;10.886;2022-07-29T04:21:13;20.60;96.90
7792;DHT22;3940;49.892;10.886;2022-07-29T04:23:59;20.60;97.60
7792;DHT22;3940;49.892;10.886;2022-07-29T04:26:46;20.50;97.00
7792;DHT22;3940;49.892;10.886;2022-07-29T04:29:31;20.60;96.40
7792;DHT22;3940;49.892;10.886;2022-07-29T04:32:16;20.60;95.20
7792;DHT22;3940;49.892;10.886;2022-07-29T04:35:04;20.70;96.60
7792;DHT22;3940;49.892;10.886;2022-07-29T04:37:49;20.70;95.80
7792;DHT22;3940;49.892;10.886;2022-07-29T04:40:36;20.60;95.70
7792;DHT22;3940;49.892;10.886;2022-07-29T04:43:24;20.70;96.40
7792;DHT22;3940;49.892;10.886;2022-07-29T04:46:11;20.60;97.20
7792;DHT22;3940;49.892;10.886;2022-07-29T04:49:16;20.70;96.80
7792;DHT22;3940;49.892;10.886;2022-07-29T04:52:03;20.70;97.10
7792;DHT22;3940;49.892;10.886;2022-07-29T04:54:49;20.70;97.70
7792;DHT22;3940;49.892;10.886;2022-07-29T04:57:33;20.80;96.90
7792;DHT22;3940;49.892;10.886;2022-07-29T05:00:19;20.80;98.00
7792;DHT22;3940;49.892;10.886;2022-07-29T05:03:09;20.90;97.50
7792;DHT22;3940;49.892;10.886;2022-07-29T05:05:56;20.90;96.40
7792;DHT22;3940;49.892;10.886;2022-07-29T05:08:44;20.90;97.40
7792;DHT22;3940;49.892;10.886;2022-07-29T05:11:30;20.90;96.80
7792;DHT22;3940;49.892;10.886;2022-07-29T05:14:16;21.00;98.30
7792;DHT22;3940;49.892;10.886;2022-07-29T05:17:02;21.00;97.60
7792;DHT22;3940;49.892;10.886;2022-07-29T05:19:48;21.00;97.80
7792;DHT22;3940;49.892;10.886;2022-07-29T05:22:36;21.00;97.70
7792;DHT22;3940;49.892;10.886;2022-07-29T05:25:22;21.00;96.80
7792;DHT22;3940;49.892;10.886;2022-07-29T05:28:10;21.00;97.90
7792;DHT22;3940;49.892;10.886;2022-07-29T05:30:56;21.10;98.50
7792;DHT22;3940;49.892;10.886;2022-07-29T05:33:41;21.10;98.50
7792;DHT22;3940;49.892;10.886;2022-07-29T05:36:26;21.10;97.10
7792;DHT22;3940;49.892;10.886;2022-07-29T05:39:11;21.10;98.00
7792;DHT22;3940;49.892;10.886;2022-07-29T05:41:56;21.10;97.00
7792;DHT22;3940;49.892;10.886;2022-07-29T05:44:41;21.10;98.80
7792;DHT22;3940;49.892;10.886;2022-07-29T05:47:27;21.10;98.00
7792;DHT22;3940;49.892;10.886;2022-07-29T05:50:13;21.10;97.70
7792;DHT22;3940;49.892;10.886;2022-07-29T05:53:22;21.10;96.90
7792;DHT22;3940;49.892;10.886;2022-07-29T05:56:07;21.10;96.90
7792;DHT22;3940;49.892;10.886;2022-07-29T05:58:51;21.20;97.50
7792;DHT22;3940;49.892;10.886;2022-07-29T06:01:38;21.20;97.80
7792;DHT22;3940;49.892;10.886;2022-07-29T06:04:24;21.30;98.10
7792;DHT22;3940;49.892;10.886;2022-07-29T06:07:30;21.50;97.70
7792;DHT22;3940;49.892;10.886;2022-07-29T06:10:18;21.50;96.70
7792;DHT22;3940;49.892;10.886;2022-07-29T06:13:04;21.60;97.80
7792;DHT22;3940;49.892;10.886;2022-07-29T06:15:50;21.60;97.70
7792;DHT22;3940;49.892;10.886;2022-07-29T06:18:35;21.70;96.50
7792;DHT22;3940;49.892;10.886;2022-07-29T06:21:25;21.60;97.30
7792;DHT22;3940;49.892;10.886;2022-07-29T06:24:14;21.60;96.00
7792;DHT22;3940;49.892;10.886;2022-07-29T06:27:01;21.80;95.50
7792;DHT22;3940;49.892;10.886;2022-07-29T06:29:46;22.00;96.40
7792;DHT22;3940;49.892;10.886;2022-07-29T06:32:30;22.20;95.80
7792;DHT22;3940;49.892;10.886;2022-07-29T06:35:16;22.30;94.80
7792;DHT22;3940;49.892;10.886;2022-07-29T06:38:02;22.40;94.00
7792;DHT22;3940;49.892;10.886;2022-07-29T06:40:46;22.50;95.90
7792;DHT22;3940;49.892;10.886;2022-07-29T06:43:46;22.40;93.30
7792;DHT22;3940;49.892;10.886;2022-07-29T06:46:31;22.50;95.20
7792;DHT22;3940;49.892;10.886;2022-07-29T06:49:16;22.50;96.10
7792;DHT22;3940;49.892;10.886;2022-07-29T06:52:00;22.50;95.70
7792;DHT22;3940;49.892;10.886;2022-07-29T06:54:44;22.60;94.00
7792;DHT22;3940;49.892;10.886;2022-07-29T06:57:32;22.50;95.60
7792;DHT22;3940;49.892;10.886;2022-07-29T07:00:16;22.60;93.20
7792;DHT22;3940;49.892;10.886;2022-07-29T07:03:01;22.70;93.10
7792;DHT22;3940;49.892;10.886;2022-07-29T07:05:46;22.60;92.80
7792;DHT22;3940;49.892;10.886;2022-07-29T07:08:31;22.50;93.00
7792;DHT22;3940;49.892;10.886;2022-07-29T07:11:16;22.70;92.60
7792;DHT22;3940;49.892;10.886;2022-07-29T07:14:02;22.60;92.20
7792;DHT22;3940;49.892;10.886;2022-07-29T07:16:47;22.90;92.40
7792;DHT22;3940;49.892;10.886;2022-07-29T07:19:52;22.90;92.10
7792;DHT22;3940;49.892;10.886;2022-07-29T07:22:40;22.90;92.70
7792;DHT22;3940;49.892;10.886;2022-07-29T07:25:26;23.00;92.10
7792;DHT22;3940;49.892;10.886;2022-07-29T07:28:11;23.00;92.30
7792;DHT22;3940;49.892;10.886;2022-07-29T07:30:56;23.00;92.20
7792;DHT22;3940;49.892;10.886;2022-07-29T07:33:42;23.20;92.70
7792;DHT22;3940;49.892;10.886;2022-07-29T07:36:31;23.10;92.30
7792;DHT22;3940;49.892;10.886;2022-07-29T07:39:20;23.30;92.20
7792;DHT22;3940;49.892;10.886;2022-07-29T07:42:09;23.50;93.30
7792;DHT22;3940;49.892;10.886;2022-07-29T07:44:56;23.50;92.50
7792;DHT22;3940;49.892;10.886;2022-07-29T07:47:42;23.60;92.40
7792;DHT22;3940;49.892;10.886;2022-07-29T07:50:32;23.60;92.40
7792;DHT22;3940;49.892;10.886;2022-07-29T07:53:16;23.60;92.30
7792;DHT22;3940;49.892;10.886;2022-07-29T07:56:02;23.80;93.00
7792;DHT22;3940;49.892;10.886;2022-07-29T07:58:48;23.70;92.20
7792;DHT22;3940;49.892;10.886;2022-07-29T08:01:35;23.90;92.60
7792;DHT22;3940;49.892;10.886;2022-07-29T08:05:01;23.80;92.90
7792;DHT22;3940;49.892;10.886;2022-07-29T08:07:46;24.10;92.90
7792;DHT22;3940;49.892;10.886;2022-07-29T08:10:30;24.20;92.20
7792;DHT22;3940;49.892;10.886;2022-07-29T08:13:29;24.30;92.50
7792;DHT22;3940;49.892;10.886;2022-07-29T08:16:16;24.10;92.00
7792;DHT22;3940;49.892;10.886;2022-07-29T08:19:06;24.40;92.10
7792;DHT22;3940;49.892;10.886;2022-07-29T08:21:51;24.50;92.20
7792;DHT22;3940;49.892;10.886;2022-07-29T08:24:38;24.50;94.20
7792;DHT22;3940;49.892;10.886;2022-07-29T08:27:37;24.70;93.00
7792;DHT22;3940;49.892;10.886;2022-07-29T08:30:23;24.30;91.80
7792;DHT22;3940;49.892;10.886;2022-07-29T08:33:07;24.50;92.10
7792;DHT22;3940;49.892;10.886;2022-07-29T08:35:52;24.50;93.30
7792;DHT22;3940;49.892;10.886;2022-07-29T08:38:38;24.50;92.40
7792;DHT22;3940;49.892;10.886;2022-07-29T08:41:23;24.70;92.20
7792;DHT22;3940;49.892;10.886;2022-07-29T08:44:07;25.10;92.50
7792;DHT22;3940;49.892;10.886;2022-07-29T08:46:54;25.30;92.20
7792;DHT22;3940;49.892;10.886;2022-07-29T08:49:41;25.10;91.80
7792;DHT22;3940;49.892;10.886;2022-07-29T08:52:35;25.40;91.90
7792;DHT22;3940;49.892;10.886;2022-07-29T08:55:23;25.50;92.60
7792;DHT22;3940;49.892;10.886;2022-07-29T08:58:08;25.90;91.40
7792;DHT22;3940;49.892;10.886;2022-07-29T09:00:55;25.90;90.70
7792;DHT22;3940;49.892;10.886;2022-07-29T09:03:40;25.90;91.70
7792;DHT22;3940;49.892;10.886;2022-07-29T09:06:28;26.10;91.30
7792;DHT22;3940;49.892;10.886;2022-07-29T09:09:17;25.70;91.50
7792;DHT22;3940;49.892;10.886;2022-07-29T09:12:04;25.70;91.20
7792;DHT22;3940;49.892;10.886;2022-07-29T09:15:13;25.70;91.50
7792;DHT22;3940;49.892;10.886;2022-07-29T09:17:58;25.70;90.70
7792;DHT22;3940;49.892;10.886;2022-07-29T09:20:52;25.90;91.10
7792;DHT22;3940;49.892;10.886;2022-07-29T09:24:06;26.10;91.20
7792;DHT22;3940;49.892;10.886;2022-07-29T09:26:54;26.20;91.80
7792;DHT22;3940;49.892;10.886;2022-07-29T09:29:41;26.40;91.30
7792;DHT22;3940;49.892;10.886;2022-07-29T09:32:26;26.60;90.90
7792;DHT22;3940;49.892;10.886;2022-07-29T09:35:20;27.00;90.10
7792;DHT22;3940;49.892;10.886;2022-07-29T09:38:12;27.10;89.90
7792;DHT22;3940;49.892;10.886;2022-07-29T09:41:00;27.70;88.30
7792;DHT22;3940;49.892;10.886;2022-07-29T09:43:54;27.50;90.00
7792;DHT22;3940;49.892;10.886;2022-07-29T09:46:39;27.30;89.60
7792;DHT22;3940;49.892;10.886;2022-07-29T09:49:25;26.90;90.80
7792;DHT22;3940;49.892;10.886;2022-07-29T09:52:10;26.80;92.10
7792;DHT22;3940;49.892;10.886;2022-07-29T09:55:08;26.90;91.70
7792;DHT22;3940;49.892;10.886;2022-07-29T09:57:53;27.20;91.50
7792;DHT22;3940;49.892;10.886;2022-07-29T10:00:42;28.00;91.70
7792;DHT22;3940;49.892;10.886;2022-07-29T10:03:26;27.80;91.50
7792;DHT22;3940;49.892;10.886;2022-07-29T10:06:11;28.00;92.50
7792;DHT22;3940;49.892;10.886;2022-07-29T10:09:09;28.40;92.60
7792;DHT22;3940;49.892;10.886;2022-07-29T10:12:10;28.20;91.60
7792;DHT22;3940;49.892;10.886;2022-07-29T10:14:55;28.70;91.20
7792;DHT22;3940;49.892;10.886;2022-07-29T10:17:39;28.50;90.50
7792;DHT22;3940;49.892;10.886;2022-07-29T10:20:25;28.20;90.30
7792;DHT22;3940;49.892;10.886;2022-07-29T10:23:09;28.40;90.10
7792;DHT22;3940;49.892;10.886;2022-07-29T10:25:54;27.80;89.90
7792;DHT22;3940;49.892;10.886;2022-07-29T10:28:39;27.50;90.10
7792;DHT22;3940;49.892;10.886;2022-07-29T10:31:55;27.70;90.60
7792;DHT22;3940;49.892;10.886;2022-07-29T10:35:06;27.50;90.40
7792;DHT22;3940;49.892;10.886;2022-07-29T10:38:15;27.10;91.50
7792;DHT22;3940;49.892;10.886;2022-07-29T10:41:50;27.40;91.00
7792;DHT22;3940;49.892;10.886;2022-07-29T10:44:34;27.40;90.00
7792;DHT22;3940;49.892;10.886;2022-07-29T10:50:09;27.70;90.20
7792;DHT22;3940;49.892;10.886;2022-07-29T10:52:55;27.60;90.80
7792;DHT22;3940;49.892;10.886;2022-07-29T10:55:40;27.70;90.90
7792;DHT22;3940;49.892;10.886;2022-07-29T10:58:28;27.30;92.00
7792;DHT22;3940;49.892;10.886;2022-07-29T11:01:29;27.30;92.80
7792;DHT22;3940;49.892;10.886;2022-07-29T11:04:40;27.10;93.60
7792;DHT22;3940;49.892;10.886;2022-07-29T11:07:20;26.60;94.50
7792;DHT22;3940;49.892;10.886;2022-07-29T11:10:27;26.80;93.70
7792;DHT22;3940;49.892;10.886;2022-07-29T11:13:11;27.00;94.10
7792;DHT22;3940;49.892;10.886;2022-07-29T11:15:57;27.00;93.60
7792;DHT22;3940;49.892;10.886;2022-07-29T11:22:08;26.70;95.80
7792;DHT22;3940;49.892;10.886;2022-07-29T11:25:13;27.50;95.80
7792;DHT22;3940;49.892;10.886;2022-07-29T11:28:10;27.80;94.60
7792;DHT22;3940;49.892;10.886;2022-07-29T11:30:57;28.00;94.10
7792;DHT22;3940;49.892;10.886;2022-07-29T11:33:45;28.20;92.70
7792;DHT22;3940;49.892;10.886;2022-07-29T11:37:14;28.20;93.00
7792;DHT22;3940;49.892;10.886;2022-07-29T11:40:10;28.50;92.20
7792;DHT22;3940;49.892;10.886;2022-07-29T11:42:58;28.00;91.60
7792;DHT22;3940;49.892;10.886;2022-07-29T11:45:46;28.20;93.50
7792;DHT22;3940;49.892;10.886;2022-07-29T11:48:31;29.10;92.70
7792;DHT22;3940;49.892;10.886;2022-07-29T11:51:15;28.40;92.90
7792;DHT22;3940;49.892;10.886;2022-07-29T11:54:01;28.60;91.80
7792;DHT22;3940;49.892;10.886;2022-07-29T11:56:49;29.10;91.70
7792;DHT22;3940;49.892;10.886;2022-07-29T11:59:43;29.10;93.00
7792;DHT22;3940;49.892;10.886;2022-07-29T12:02:44;30.40;90.60
7792;DHT22;3940;49.892;10.886;2022-07-29T12:05:37;31.10;87.50
7792;DHT22;3940;49.892;10.886;2022-07-29T12:08:23;31.40;86.10
7792;DHT22;3940;49.892;10.886;2022-07-29T12:11:19;31.90;84.60
7792;DHT22;3940;49.892;10.886;2022-07-29T12:14:07;32.30;83.40
7792;DHT22;3940;49.892;10.886;2022-07-29T12:16:55;32.60;78.60
7792;DHT22;3940;49.892;10.886;2022-07-29T12:19:43;32.20;79.50
7792;DHT22;3940;49.892;10.886;2022-07-29T12:22:33;32.30;77.20
7792;DHT22;3940;49.892;10.886;2022-07-29T12:25:23;33.00;77.60
7792;DHT22;3940;49.892;10.886;2022-07-29T12:28:13;33.10;74.60
7792;DHT22;3940;49.892;10.886;2022-07-29T12:31:03;33.10;77.10
7792;DHT22;3940;49.892;10.886;2022-07-29T12:33:53;33.30;76.70
7792;DHT22;3940;49.892;10.886;2022-07-29T12:36:38;33.40;72.50
7792;DHT22;3940;49.892;10.886;2022-07-29T12:39:23;34.10;73.80
7792;DHT22;3940;49.892;10.886;2022-07-29T12:42:12;34.00;72.80
7792;DHT22;3940;49.892;10.886;2022-07-29T12:44:57;34.00;71.50
7792;DHT22;3940;49.892;10.886;2022-07-29T12:47:57;34.20;71.50
7792;DHT22;3940;49.892;10.886;2022-07-29T12:50:59;34.20;72.50
7792;DHT22;3940;49.892;10.886;2022-07-29T12:54:06;34.60;68.50
7792;DHT22;3940;49.892;10.886;2022-07-29T12:56:59;34.60;69.50
7792;DHT22;3940;49.892;10.886;2022-07-29T12:59:44;34.50;69.40
7792;DHT22;3940;49.892;10.886;2022-07-29T13:02:29;34.80;67.60
7792;DHT22;3940;49.892;10.886;2022-07-29T13:05:13;34.10;70.50
7792;DHT22;3940;49.892;10.886;2022-07-29T13:08:10;34.70;68.00
7792;DHT22;3940;49.892;10.886;2022-07-29T13:10:55;34.40;68.00
7792;DHT22;3940;49.892;10.886;2022-07-29T13:13:55;35.10;66.80
7792;DHT22;3940;49.892;10.886;2022-07-29T13:20:06;34.50;68.80
7792;DHT22;3940;49.892;10.886;2022-07-29T13:22:53;34.40;67.20
7792;DHT22;3940;49.892;10.886;2022-07-29T13:26:07;35.00;67.20
7792;DHT22;3940;49.892;10.886;2022-07-29T13:28:52;33.10;67.60
7792;DHT22;3940;49.892;10.886;2022-07-29T13:31:36;34.90;66.80
7792;DHT22;3940;49.892;10.886;2022-07-29T13:34:22;34.40;65.10
7792;DHT22;3940;49.892;10.886;2022-07-29T13:37:08;34.00;63.60
7792;DHT22;3940;49.892;10.886;2022-07-29T13:39:52;33.90;66.70
7792;DHT22;3940;49.892;10.886;2022-07-29T13:42:40;34.30;68.20
7792;DHT22;3940;49.892;10.886;2022-07-29T13:45:24;34.10;67.60
7792;DHT22;3940;49.892;10.886;2022-07-29T13:48:09;34.00;69.30
7792;DHT22;3940;49.892;10.886;2022-07-29T13:50:54;33.60;71.90
7792;DHT22;3940;49.892;10.886;2022-07-29T13:53:38;32.80;72.80
7792;DHT22;3940;49.892;10.886;2022-07-29T13:56:23;32.00;75.30
7792;DHT22;3940;49.892;10.886;2022-07-29T13:59:07;31.70;76.10
7792;DHT22;3940;49.892;10.886;2022-07-29T14:01:52;31.20;77.30
7792;DHT22;3940;49.892;10.886;2022-07-29T14:04:37;31.00;80.00
7792;DHT22;3940;49.892;10.886;2022-07-29T14:07:22;30.90;79.80
7792;DHT22;3940;49.892;10.886;2022-07-29T14:10:07;30.60;80.40
7792;DHT22;3940;49.892;10.886;2022-07-29T14:12:52;30.10;79.50
7792;DHT22;3940;49.892;10.886;2022-07-29T14:15:36;29.30;82.60
7792;DHT22;3940;49.892;10.886;2022-07-29T14:18:21;29.50;82.90
7792;DHT22;3940;49.892;10.886;2022-07-29T14:21:05;29.10;83.20
7792;DHT22;3940;49.892;10.886;2022-07-29T14:23:50;29.40;83.90
7792;DHT22;3940;49.892;10.886;2022-07-29T14:26:42;29.30;82.90
7792;DHT22;3940;49.892;10.886;2022-07-29T14:29:51;29.90;82.70
7792;DHT22;3940;49.892;10.886;2022-07-29T14:32:38;29.50;82.10
7792;DHT22;3940;49.892;10.886;2022-07-29T14:35:25;29.50;84.70
7792;DHT22;3940;49.892;10.886;2022-07-29T14:38:09;29.70;84.40
7792;DHT22;3940;49.892;10.886;2022-07-29T14:40:54;28.80;86.40
7792;DHT22;3940;49.892;10.886;2022-07-29T14:43:39;28.30;88.10
7792;DHT22;3940;49.892;10.886;2022-07-29T14:46:24;27.80;90.00
7792;DHT22;3940;49.892;10.886;2022-07-29T14:49:09;27.60;91.20
7792;DHT22;3940;49.892;10.886;2022-07-29T14:51:55;27.30;92.20
7792;DHT22;3940;49.892;10.886;2022-07-29T14:54:40;27.10;92.50
7792;DHT22;3940;49.892;10.886;2022-07-29T14:57:26;26.60;92.20
7792;DHT22;3940;49.892;10.886;2022-07-29T15:00:10;26.80;93.80
7792;DHT22;3940;49.892;10.886;2022-07-29T15:02:55;26.60;93.80
7792;DHT22;3940;49.892;10.886;2022-07-29T15:05:40;26.50;94.70
7792;DHT22;3940;49.892;10.886;2022-07-29T15:08:26;26.30;95.40
7792;DHT22;3940;49.892;10.886;2022-07-29T15:11:14;26.30;96.00
7792;DHT22;3940;49.892;10.886;2022-07-29T15:14:00;26.20;96.20
7792;DHT22;3940;49.892;10.886;2022-07-29T15:16:45;25.40;98.10
7792;DHT22;3940;49.892;10.886;2022-07-29T15:19:29;24.80;99.90
7792;DHT22;3940;49.892;10.886;2022-07-29T15:22:13;24.20;99.90
7792;DHT22;3940;49.892;10.886;2022-07-29T15:24:58;23.80;99.90
7792;DHT22;3940;49.892;10.886;2022-07-29T15:27:42;22.80;99.90
7792;DHT22;3940;49.892;10.886;2022-07-29T15:30:27;22.30;99.90
7792;DHT22;3940;49.892;10.886;2022-07-29T15:33:12;21.90;99.90
7792;DHT22;3940;49.892;10.886;2022-07-29T15:35:57;21.90;99.90
7792;DHT22;3940;49.892;10.886;2022-07-29T15:38:41;21.80;99.90
7792;DHT22;3940;49.892;10.886;2022-07-29T15:41:28;21.80;99.90
7792;DHT22;3940;49.892;10.886;2022-07-29T15:44:13;21.70;99.90
7792;DHT22;3940;49.892;10.886;2022-07-29T15:46:57;21.60;99.90
7792;DHT22;3940;49.892;10.886;2022-07-29T15:49:50;21.30;99.90
7792;DHT22;3940;49.892;10.886;2022-07-29T15:52:36;21.00;99.90
7792;DHT22;3940;49.892;10.886;2022-07-29T15:55:23;20.80;99.90
7792;DHT22;3940;49.892;10.886;2022-07-29T15:58:09;20.40;99.90
7792;DHT22;3940;49.892;10.886;2022-07-29T16:00:54;20.20;99.90
7792;DHT22;3940;49.892;10.886;2022-07-29T16:03:40;20.20;99.90
7792;DHT22;3940;49.892;10.886;2022-07-29T16:06:26;20.00;99.90
7792;DHT22;3940;49.892;10.886;2022-07-29T16:09:10;20.10;99.90
7792;DHT22;3940;49.892;10.886;2022-07-29T16:11:54;20.20;99.90
7792;DHT22;3940;49.892;10.886;2022-07-29T16:14:41;20.30;99.90
7792;DHT22;3940;49.892;10.886;2022-07-29T16:17:26;20.90;99.90
7792;DHT22;3940;49.892;10.886;2022-07-29T16:20:11;21.20;99.90
7792;DHT22;3940;49.892;10.886;2022-07-29T16:22:55;21.10;99.90
7792;DHT22;3940;49.892;10.886;2022-07-29T16:25:42;21.20;99.90
7792;DHT22;3940;49.892;10.886;2022-07-29T16:28:28;21.50;99.90
7792;DHT22;3940;49.892;10.886;2022-07-29T16:31:20;21.70;99.90
7792;DHT22;3940;49.892;10.886;2022-07-29T16:34:06;21.20;99.90
7792;DHT22;3940;49.892;10.886;2022-07-29T16:36:52;21.10;99.90
7792;DHT22;3940;49.892;10.886;2022-07-29T16:39:40;20.60;99.90
7792;DHT22;3940;49.892;10.886;2022-07-29T16:42:27;20.60;99.90
7792;DHT22;3940;49.892;10.886;2022-07-29T16:45:16;20.30;99.90
7792;DHT22;3940;49.892;10.886;2022-07-29T16:48:02;20.10;99.90
7792;DHT22;3940;49.892;10.886;2022-07-29T16:50:52;20.20;99.90
7792;DHT22;3940;49.892;10.886;2022-07-29T16:53:43;20.00;99.90
7792;DHT22;3940;49.892;10.886;2022-07-29T16:56:29;20.20;99.90
7792;DHT22;3940;49.892;10.886;2022-07-29T16:59:14;20.50;99.90
7792;DHT22;3940;49.892;10.886;2022-07-29T17:01:59;20.60;99.90
7792;DHT22;3940;49.892;10.886;2022-07-29T17:04:45;20.60;99.90
7792;DHT22;3940;49.892;10.886;2022-07-29T17:07:30;20.50;99.90
7792;DHT22;3940;49.892;10.886;2022-07-29T17:10:17;20.20;99.90
7792;DHT22;3940;49.892;10.886;2022-07-29T17:13:02;20.20;99.90
7792;DHT22;3940;49.892;10.886;2022-07-29T17:15:49;20.20;99.90
7792;DHT22;3940;49.892;10.886;2022-07-29T17:18:34;20.20;99.90
7792;DHT22;3940;49.892;10.886;2022-07-29T17:21:25;20.50;99.90
7792;DHT22;3940;49.892;10.886;2022-07-29T17:24:13;20.40;99.90
7792;DHT22;3940;49.892;10.886;2022-07-29T17:27:19;20.30;99.90
7792;DHT22;3940;49.892;10.886;2022-07-29T17:30:04;20.10;99.90
7792;DHT22;3940;49.892;10.886;2022-07-29T17:32:49;20.00;99.90
7792;DHT22;3940;49.892;10.886;2022-07-29T17:35:35;20.00;99.90
7792;DHT22;3940;49.892;10.886;2022-07-29T17:38:30;20.20;99.90
7792;DHT22;3940;49.892;10.886;2022-07-29T17:41:15;20.50;99.90
7792;DHT22;3940;49.892;10.886;2022-07-29T17:44:02;20.60;99.90
7792;DHT22;3940;49.892;10.886;2022-07-29T17:46:47;20.40;99.90
7792;DHT22;3940;49.892;10.886;2022-07-29T17:49:33;19.90;99.90
7792;DHT22;3940;49.892;10.886;2022-07-29T17:52:17;20.10;99.90
7792;DHT22;3940;49.892;10.886;2022-07-29T17:55:03;20.30;99.90
7792;DHT22;3940;49.892;10.886;2022-07-29T17:57:50;20.20;99.90
7792;DHT22;3940;49.892;10.886;2022-07-29T18:00:43;20.30;99.90
7792;DHT22;3940;49.892;10.886;2022-07-29T18:03:31;20.50;99.90
7792;DHT22;3940;49.892;10.886;2022-07-29T18:06:17;20.20;99.90
7792;DHT22;3940;49.892;10.886;2022-07-29T18:09:02;20.50;99.90
7792;DHT22;3940;49.892;10.886;2022-07-29T18:11:50;20.70;99.90
7792;DHT22;3940;49.892;10.886;2022-07-29T18:14:36;20.80;99.90
7792;DHT22;3940;49.892;10.886;2022-07-29T18:17:26;20.90;99.90
7792;DHT22;3940;49.892;10.886;2022-07-29T18:20:11;21.20;99.90